Relevés horaires Beauvechain (Belgique)


Relevés horaires à Beauvechain - Samedi 18 Nov. 2017
Heure UTC1 Température [°C] Vent [km/h] Hum. [%] Pres.4 [hPa] Visi. [Km] Nébu. [octa] Préc.5 [mm] Cond.
2m. Res. Ros. Dir.2 Vit. Moy. Raf.3
23:00 6.5 5 5.4 O 7.4 -- 14.8 93 1017.6(-0.7/3h) 20 -- -- --
22:00 6.6 4.7 5.6 O 9.3 -- 14.8 93 1017.8(-0.9/3h) 19 -- -- --
21:00 6.5 4.6 5.8 SO 9.3 -- 14.8 95 1017.8(-1.4/3h) 10 -- -- NA
20:00 6.3 4.8 5.7 SO 7.4 -- 13.0 96 1018.2(-1.3/3h) 11 -- -- NA
19:00 6.1 4.1 5.8 SSO 9.3 -- 14.8 98 1018.8(-1.2/3h) 4.1 -- -- Il y a une bruine faible et continue à la station au moment de l'observation
18:00 6.5 4.2 5.5 OSO 11.1 -- 20.4 93 1019.3(-0.9/3h) 19 -- trace/12h
NA
17:00 6.8 5 4.6 OSO 9.3 -- 14.8 86 1019.7(-1.0/3h) 20 -- -- NA
16:00 7.0 5.2 2.9 OSO 9.3 -- 14.8 75 1020(-1.1/3h) 20 -- -- --
15:00 7.0 4.8 2.2 SO 11.1 -- 20.4 71 1020.2(-1.6/3h) 20 -- -- --
14:00 7.0 4.8 2.1 OSO 11.1 -- 20.4 71 1020.7(-2.1/3h) 20 -- -- --
13:00 6.5 3.9 1.5 OSO 13.0 -- 20.4 70 1021.2(-1.9/3h) 20 -- -- --
12:00 6.1 3.8 0.7 OSO 11.1 -- 18.5 68 1022(-1.4/3h) 20 -- -- --
11:00 5.6 3.2 0.9 OSO 11.1 -- 16.7 72 1022.8(-1.0/3h) 20 -- -- --
10:00 4.5 2.2 0.5 OSO 9.3 -- 14.8 75 1023.3(-0.5/3h) 20 -- -- --
09:00 3.7 0.9 0.4 SO 11.1 -- 14.8 79 1023.7(-0.3/3h) 20 -- -- --
08:00 3.0 1 0.1 SO 7.4 -- 9.3 81 1024(-0.2/3h) 19 -- -- --
07:00 1.8 -0.4 -0.1 SO 7.4 -- 7.4 87 1024(-0.8/3h) 14 -- -- --
06:00 1.3 -0.4 -0.2 SO 5.6 -- 7.4 90 1024.2(-1.1/3h) 14 -- -- --
05:00 1.2 -0.5 -0.3 SO 5.6 -- 5.6 90 1024.5(-1.5/3h) 13 -- -- --
04:00 1.2 -0.5 -0.1 SSO 5.6 -- 7.4 91 1025(-1.6/3h) 12 -- -- --
03:00 1.5 -0.1 -0.1 SSO 5.6 -- 7.4 89 1025.4(-1.3/3h) 17 -- -- --
02:00 2.1 0.5 -- SO 5.6 -- 5.6 -- 1026(-1.0/3h) 20 -- -- --
01:00 2.5 1 0.6 SO 5.6 -- 5.6 87 1026.5(-0.8/3h) 20 -- -- --
00:00 3.0 3.0 0.5 SO 3.7 -- 5.6 84 1026.7(-0.8/3h) 20 -- -- --

1 Coordinated Universal Time. Actuellement il est 21:00 locale et 19:00 UTC.

2 Le vent souffle depuis la direction indiquée vers la direction oposée.

3 Les rafales max. sont disponible 40 min après l'heure du relevé.

4 Pour les stations d'altitude (plus de 600m) le géopotentiel du niveau le plus proche de la pression obligatoire est indiqué.

5 Les stations disposant d'un diffuseur peuvent indiquer "trace". Cela signifie que des précipitations ont touchés le sol mais que la quantité est inférieure à 0.1 mm.

Récapitulatif de la journée
Température [°C] Vent [km/h] Ensoleillement4 [h] Precipitations totale5 [mm] Pression [Hpa]
Min1 Max.2 Moy.3 Max. Min Max.
1.0 7.1 0 20.4 0 h 0 min 0 1017.6 1026.7

1 Température minimale relevée entre 18:00 UTC la veille et 18:00 UTC le jour donné.

2 Température maximale relevée entre 06:00 UTC le jour donné et 06:00 UTC le lendemain.

3 Vent moyen de la journée basé sur les relevés horaires.

4 Ensoleillement en heures relevé entre 06:00 UTC la veille et 06:00 UTC le jour donné.

5 Précipitations totales tombées entre 06:00 UTC la jour donné et 06:00 UTC le lendemain.

Graphiques horaires